createdAt,value
2023-05-05T00:00:58.894Z,10.71
2023-05-05T00:03:25.882Z,10.66
2023-05-05T00:05:54.751Z,10.64
2023-05-05T00:08:21.817Z,10.62
2023-05-05T00:10:50.446Z,10.62
2023-05-05T00:13:17.660Z,10.59
2023-05-05T00:15:45.819Z,10.50
2023-05-05T00:18:15.124Z,10.52
2023-05-05T00:20:42.078Z,10.54
2023-05-05T00:23:08.925Z,10.50
2023-05-05T00:25:35.795Z,10.40
2023-05-05T00:28:02.759Z,10.31
2023-05-05T00:30:30.816Z,10.23
2023-05-05T00:32:57.837Z,10.22
2023-05-05T00:35:24.869Z,10.22
2023-05-05T00:37:51.683Z,10.22
2023-05-05T00:40:19.191Z,10.23
2023-05-05T00:42:47.442Z,10.25
2023-05-05T00:45:15.285Z,10.28
2023-05-05T00:47:46.892Z,10.33
2023-05-05T00:50:21.757Z,10.25
2023-05-05T00:52:48.688Z,10.36
2023-05-05T00:55:15.505Z,10.33
2023-05-05T00:57:42.300Z,10.25
2023-05-05T01:00:10.085Z,10.23
2023-05-05T01:02:39.293Z,10.20
2023-05-05T01:05:08.061Z,10.22
2023-05-05T01:07:43.831Z,10.24
2023-05-05T01:10:20.265Z,10.26
2023-05-05T01:13:15.308Z,10.25
2023-05-05T01:16:12.663Z,10.26
2023-05-05T01:19:09.411Z,10.22
2023-05-05T01:21:44.233Z,10.15
2023-05-05T01:24:20.202Z,10.20
2023-05-05T01:27:09.660Z,10.26
2023-05-05T01:29:58.386Z,10.33
2023-05-05T01:32:30.031Z,10.36
2023-05-05T01:35:01.058Z,10.40
2023-05-05T01:37:42.917Z,10.39
2023-05-05T01:40:10.968Z,10.38
2023-05-05T01:42:38.391Z,10.39
2023-05-05T01:45:06.002Z,10.41
2023-05-05T01:47:32.911Z,10.37
2023-05-05T01:49:59.933Z,10.34
2023-05-05T01:52:27.162Z,10.32
2023-05-05T01:54:54.104Z,10.25
2023-05-05T01:57:21.893Z,10.15
2023-05-05T01:59:48.880Z,10.13
2023-05-05T02:02:15.758Z,10.11
2023-05-05T02:04:43.602Z,10.11
2023-05-05T02:07:11.839Z,10.15
2023-05-05T02:09:38.778Z,10.17
2023-05-05T02:12:05.987Z,10.18
2023-05-05T02:14:33.437Z,10.16
2023-05-05T02:17:00.389Z,10.06
2023-05-05T02:19:32.607Z,9.97
2023-05-05T02:21:59.572Z,9.96
2023-05-05T02:24:26.759Z,9.93
2023-05-05T02:26:53.659Z,9.86
2023-05-05T02:29:28.898Z,9.77
2023-05-05T02:31:58.458Z,9.70
2023-05-05T02:34:26.732Z,9.71
2023-05-05T02:36:56.060Z,9.76
2023-05-05T02:39:26.548Z,9.81
2023-05-05T02:41:54.299Z,9.81
2023-05-05T02:44:23.569Z,9.79
2023-05-05T02:46:50.505Z,9.81
2023-05-05T02:49:17.427Z,9.79
2023-05-05T02:51:44.274Z,9.82
2023-05-05T02:54:11.113Z,9.85
2023-05-05T02:56:44.772Z,9.83
2023-05-05T02:59:29.945Z,9.86
2023-05-05T03:02:07.363Z,9.90
2023-05-05T03:04:40.076Z,9.85
2023-05-05T03:07:15.490Z,9.88
2023-05-05T03:10:16.335Z,9.90
2023-05-05T03:12:54.044Z,9.82
2023-05-05T03:15:26.645Z,9.74
2023-05-05T03:17:54.119Z,9.71
2023-05-05T03:20:21.106Z,9.64
2023-05-05T03:22:48.100Z,9.59
2023-05-05T03:25:15.139Z,9.56
2023-05-05T03:27:42.108Z,9.52
2023-05-05T03:30:10.514Z,9.50
2023-05-05T03:32:37.824Z,9.49
2023-05-05T03:35:05.283Z,9.52
2023-05-05T03:37:32.239Z,9.56
2023-05-05T03:39:59.046Z,9.61
2023-05-05T03:42:26.001Z,9.60
2023-05-05T03:44:53.907Z,9.53
2023-05-05T03:47:20.745Z,9.40
2023-05-05T03:49:47.994Z,9.26
2023-05-05T03:52:15.214Z,9.17
2023-05-05T03:54:43.211Z,9.09
2023-05-05T03:57:10.165Z,9.02
2023-05-05T03:59:37.064Z,8.99
2023-05-05T04:02:03.985Z,9.00
2023-05-05T04:04:31.175Z,9.05
2023-05-05T04:06:58.236Z,9.08
2023-05-05T04:09:25.171Z,9.11
2023-05-05T04:11:51.996Z,9.09
2023-05-05T04:14:18.977Z,9.08
2023-05-05T04:16:46.033Z,9.05
2023-05-05T04:19:13.446Z,9.04
2023-05-05T04:21:40.524Z,9.11
2023-05-05T04:24:07.388Z,9.23
2023-05-05T04:26:34.540Z,9.41
2023-05-05T04:29:01.435Z,9.77
2023-05-05T04:31:28.485Z,10.46
2023-05-05T04:33:55.491Z,11.30
2023-05-05T04:36:22.421Z,11.61
2023-05-05T04:38:49.344Z,11.96
2023-05-05T04:41:16.215Z,12.79
2023-05-05T04:43:43.090Z,13.40
2023-05-05T04:46:10.292Z,14.14
2023-05-05T04:48:38.225Z,14.84
2023-05-05T04:51:06.617Z,14.66
2023-05-05T04:53:33.684Z,14.11
2023-05-05T04:56:01.626Z,13.65
2023-05-05T04:58:29.073Z,13.37
2023-05-05T05:00:56.061Z,13.25
2023-05-05T05:03:23.035Z,13.42
2023-05-05T05:05:50.287Z,13.48
2023-05-05T05:08:18.015Z,13.50
2023-05-05T05:10:45.128Z,13.78
2023-05-05T05:13:12.929Z,14.95
2023-05-05T05:15:41.147Z,16.04
2023-05-05T05:18:08.102Z,16.84
2023-05-05T05:20:35.024Z,17.62
2023-05-05T05:23:04.916Z,18.02
2023-05-05T05:25:31.901Z,17.85
2023-05-05T05:28:09.503Z,17.77
2023-05-05T05:30:37.310Z,17.53
2023-05-05T05:33:04.221Z,17.71
2023-05-05T05:35:31.729Z,18.17
2023-05-05T05:37:58.689Z,19.09
2023-05-05T05:40:25.555Z,20.21
2023-05-05T05:42:52.363Z,21.31
2023-05-05T05:45:19.417Z,20.77
2023-05-05T05:47:46.476Z,20.35
2023-05-05T05:50:17.371Z,20.40
2023-05-05T05:52:44.380Z,20.31
2023-05-05T05:55:11.349Z,20.18
2023-05-05T05:57:38.267Z,19.81
2023-05-05T06:00:06.511Z,19.58
2023-05-05T06:02:34.280Z,19.79
2023-05-05T06:05:06.688Z,20.03
2023-05-05T06:07:33.743Z,20.67
2023-05-05T06:10:10.893Z,21.12
2023-05-05T06:12:51.398Z,21.72
2023-05-05T06:15:19.524Z,22.24
2023-05-05T06:17:47.846Z,22.17
2023-05-05T06:20:15.349Z,21.97
2023-05-05T06:22:42.296Z,21.81
2023-05-05T06:25:09.442Z,21.58
2023-05-05T06:27:36.505Z,21.43
2023-05-05T06:30:03.729Z,21.68
2023-05-05T06:32:30.853Z,21.81
2023-05-05T06:34:57.874Z,22.32
2023-05-05T06:37:27.281Z,22.56
2023-05-05T06:39:54.324Z,22.67
2023-05-05T06:42:21.555Z,22.79
2023-05-05T06:44:48.471Z,23.09
2023-05-05T06:47:15.418Z,23.15
2023-05-05T06:49:42.351Z,23.37
2023-05-05T06:52:09.151Z,23.54
2023-05-05T06:54:36.146Z,23.70
2023-05-05T06:57:03.130Z,23.94
2023-05-05T06:59:30.077Z,24.15
2023-05-05T07:02:00.098Z,25.09
2023-05-05T07:04:28.386Z,25.12
2023-05-05T07:06:55.458Z,24.83
2023-05-05T07:09:22.329Z,24.92
2023-05-05T07:11:49.322Z,25.31
2023-05-05T07:14:16.155Z,25.24
2023-05-05T07:16:43.081Z,25.06
2023-05-05T07:19:09.961Z,24.53
2023-05-05T07:21:36.883Z,24.43
2023-05-05T07:24:04.275Z,24.37
2023-05-05T07:26:31.397Z,24.64
2023-05-05T07:28:59.249Z,24.95
2023-05-05T07:31:26.750Z,24.80
2023-05-05T07:33:56.271Z,24.06
2023-05-05T07:36:23.497Z,24.06
2023-05-05T07:38:50.571Z,24.69
2023-05-05T07:41:20.565Z,25.28
2023-05-05T07:43:50.136Z,25.83
2023-05-05T07:46:18.121Z,25.63
2023-05-05T07:48:45.068Z,24.89
2023-05-05T07:51:12.211Z,24.67
2023-05-05T07:53:41.184Z,24.71
2023-05-05T07:56:09.133Z,24.64
2023-05-05T07:58:36.018Z,24.77
2023-05-05T08:01:03.177Z,25.25
2023-05-05T08:03:30.273Z,24.89
2023-05-05T08:05:57.273Z,25.03
2023-05-05T08:08:25.235Z,25.00
2023-05-05T08:10:53.546Z,25.53
2023-05-05T08:13:20.552Z,25.50
2023-05-05T08:15:47.797Z,25.66
2023-05-05T08:18:14.952Z,25.43
2023-05-05T08:20:43.479Z,25.73
2023-05-05T08:23:11.977Z,25.74
2023-05-05T08:25:39.124Z,25.89
2023-05-05T08:28:07.994Z,26.17
2023-05-05T08:30:35.518Z,26.31
2023-05-05T08:33:03.705Z,25.80
2023-05-05T08:35:30.777Z,25.73
2023-05-05T08:37:59.233Z,25.90
2023-05-05T08:40:30.206Z,26.19
2023-05-05T08:42:57.376Z,26.28
2023-05-05T08:45:24.217Z,26.37
2023-05-05T08:47:51.219Z,26.42
2023-05-05T08:50:18.205Z,26.18
2023-05-05T08:52:45.277Z,26.07
2023-05-05T08:55:27.244Z,26.08
2023-05-05T08:57:58.267Z,26.09
2023-05-05T09:00:27.495Z,26.18
2023-05-05T09:02:58.594Z,26.29
2023-05-05T09:05:26.741Z,25.97
2023-05-05T09:07:53.530Z,25.99
2023-05-05T09:10:20.947Z,25.87
2023-05-05T09:12:50.432Z,25.82
2023-05-05T09:15:17.422Z,25.86
2023-05-05T09:17:44.528Z,25.57
2023-05-05T09:20:12.809Z,25.41
2023-05-05T09:22:40.799Z,25.36
2023-05-05T09:25:10.167Z,25.02
2023-05-05T09:27:42.580Z,24.20
2023-05-05T09:30:11.310Z,23.85
2023-05-05T09:32:49.242Z,23.62
2023-05-05T09:35:16.693Z,24.14
2023-05-05T09:37:43.896Z,24.59
2023-05-05T09:40:12.072Z,24.82
2023-05-05T09:42:39.696Z,24.54
2023-05-05T09:45:27.595Z,24.51
2023-05-05T09:47:59.092Z,24.69
2023-05-05T09:50:31.091Z,24.86
2023-05-05T09:53:02.208Z,24.98
2023-05-05T09:55:31.497Z,25.14
2023-05-05T09:58:17.371Z,25.32
2023-05-05T10:00:44.366Z,25.48
2023-05-05T10:03:11.412Z,25.42
2023-05-05T10:05:54.674Z,25.22
2023-05-05T10:08:23.553Z,25.27
2023-05-05T10:10:54.339Z,25.22
2023-05-05T10:13:22.987Z,25.24
2023-05-05T10:15:51.853Z,25.36
2023-05-05T10:18:25.797Z,25.42
2023-05-05T10:20:55.534Z,25.52
2023-05-05T10:23:23.443Z,25.57
2023-05-05T10:25:55.930Z,25.54
2023-05-05T10:28:28.807Z,25.43
2023-05-05T10:30:57.035Z,25.36
2023-05-05T10:33:32.487Z,25.35
2023-05-05T10:36:02.729Z,25.30
2023-05-05T10:38:31.183Z,25.29
2023-05-05T10:41:02.293Z,25.25
2023-05-05T10:43:31.388Z,24.92
2023-05-05T10:45:58.437Z,24.70
2023-05-05T10:48:48.590Z,24.86
2023-05-05T10:51:49.032Z,25.02
2023-05-05T10:54:54.833Z,25.21
2023-05-05T10:57:24.034Z,25.28
2023-05-05T10:59:51.015Z,25.38
2023-05-05T11:02:30.374Z,25.37
2023-05-05T11:05:23.723Z,25.30
2023-05-05T11:07:51.699Z,25.33
2023-05-05T11:10:22.948Z,25.04
2023-05-05T11:12:59.538Z,24.56
2023-05-05T11:15:27.570Z,24.09
2023-05-05T11:18:02.577Z,23.92
2023-05-05T11:20:37.904Z,24.03
2023-05-05T11:23:05.337Z,24.25
2023-05-05T11:25:35.940Z,24.52
2023-05-05T11:28:11.420Z,24.81
2023-05-05T11:30:57.463Z,25.04
2023-05-05T11:33:31.611Z,25.22
2023-05-05T11:35:59.342Z,25.26
2023-05-05T11:38:47.803Z,25.22
2023-05-05T11:41:20.009Z,25.27
2023-05-05T11:43:46.885Z,25.37
2023-05-05T11:46:14.643Z,25.39
2023-05-05T11:48:49.013Z,25.37
2023-05-05T11:51:17.063Z,25.14
2023-05-05T11:53:48.215Z,25.16
2023-05-05T11:56:20.154Z,25.24
2023-05-05T11:58:50.044Z,24.97
2023-05-05T12:01:17.005Z,24.73
2023-05-05T12:03:46.001Z,24.54
2023-05-05T12:06:13.407Z,24.80
2023-05-05T12:08:41.275Z,24.65
2023-05-05T12:11:09.249Z,24.41
2023-05-05T12:13:36.150Z,24.67
2023-05-05T12:16:10.040Z,24.97
2023-05-05T12:18:39.249Z,25.18
2023-05-05T12:21:19.024Z,25.34
2023-05-05T12:23:46.998Z,25.24
2023-05-05T12:26:32.340Z,25.27
2023-05-05T12:29:00.095Z,25.38
2023-05-05T12:31:40.329Z,25.46
2023-05-05T12:34:10.609Z,25.49
2023-05-05T12:36:38.459Z,25.59
2023-05-05T12:39:05.601Z,25.67
2023-05-05T12:41:33.328Z,25.67
2023-05-05T12:44:02.218Z,25.64
2023-05-05T12:46:32.614Z,25.70
2023-05-05T12:49:05.657Z,25.74
2023-05-05T12:51:33.485Z,25.76
2023-05-05T12:54:03.488Z,25.62
2023-05-05T12:56:41.183Z,25.59
2023-05-05T12:59:12.478Z,25.64
2023-05-05T13:01:52.649Z,25.57
2023-05-05T13:04:22.290Z,25.51
2023-05-05T13:07:12.484Z,25.41
2023-05-05T13:09:39.509Z,25.42
2023-05-05T13:12:15.468Z,25.55
2023-05-05T13:14:42.519Z,26.17
2023-05-05T13:17:10.851Z,26.64
2023-05-05T13:19:42.301Z,26.95
2023-05-05T13:22:10.301Z,27.08
2023-05-05T13:24:49.870Z,27.29
2023-05-05T13:27:19.235Z,27.46
2023-05-05T13:29:46.316Z,27.39
2023-05-05T13:32:13.084Z,27.08
2023-05-05T13:34:39.785Z,26.83
2023-05-05T13:37:06.754Z,26.59
2023-05-05T13:39:33.678Z,26.65
2023-05-05T13:42:00.615Z,26.70
2023-05-05T13:44:27.648Z,26.67
2023-05-05T13:46:54.764Z,26.58
2023-05-05T13:49:21.743Z,26.55
2023-05-05T13:51:48.678Z,26.49
2023-05-05T13:54:15.534Z,26.43
2023-05-05T13:56:42.670Z,26.13
2023-05-05T13:59:09.709Z,25.93
2023-05-05T14:01:36.703Z,25.74
2023-05-05T14:04:05.448Z,25.62
2023-05-05T14:06:33.863Z,25.35
2023-05-05T14:09:00.912Z,25.15
2023-05-05T14:11:27.912Z,25.06
2023-05-05T14:13:54.743Z,24.94
2023-05-05T14:16:21.829Z,24.83
2023-05-05T14:18:48.913Z,24.78
2023-05-05T14:21:15.887Z,24.83
2023-05-05T14:23:42.829Z,24.90
2023-05-05T14:26:09.779Z,24.93
2023-05-05T14:28:36.673Z,24.92
2023-05-05T14:31:03.476Z,25.01
2023-05-05T14:33:30.410Z,25.01
2023-05-05T14:35:57.308Z,24.88
2023-05-05T14:38:24.405Z,24.72
2023-05-05T14:40:51.455Z,24.49
2023-05-05T14:43:18.349Z,24.45
2023-05-05T14:45:45.355Z,24.58
2023-05-05T14:48:12.121Z,24.68
2023-05-05T14:50:40.677Z,24.71
2023-05-05T14:53:07.571Z,24.77
2023-05-05T14:55:34.398Z,24.79
2023-05-05T14:58:01.328Z,24.83
2023-05-05T15:00:29.132Z,24.79
2023-05-05T15:02:56.275Z,24.65
2023-05-05T15:05:23.372Z,24.54
2023-05-05T15:07:50.542Z,24.48
2023-05-05T15:10:18.207Z,24.48
2023-05-05T15:12:46.657Z,24.66
2023-05-05T15:15:13.681Z,24.78
2023-05-05T15:17:41.981Z,24.85
2023-05-05T15:20:08.880Z,24.90
2023-05-05T15:22:37.045Z,24.92
2023-05-05T15:25:04.216Z,24.90
2023-05-05T15:27:33.661Z,24.82
2023-05-05T15:30:01.317Z,24.85
2023-05-05T15:32:29.514Z,24.81
2023-05-05T15:34:56.576Z,24.90
2023-05-05T15:37:23.518Z,24.88
2023-05-05T15:39:50.575Z,24.70
2023-05-05T15:42:17.437Z,24.54
2023-05-05T15:44:44.356Z,24.34
2023-05-05T15:47:12.031Z,24.27
2023-05-05T15:49:38.981Z,24.33
2023-05-05T15:52:05.947Z,24.26
2023-05-05T15:54:32.850Z,24.25
2023-05-05T15:56:59.914Z,23.95
2023-05-05T15:59:26.826Z,23.64
2023-05-05T16:01:54.293Z,23.36
2023-05-05T16:04:21.386Z,23.16
2023-05-05T16:06:48.386Z,23.13
2023-05-05T16:09:15.368Z,23.11
2023-05-05T16:11:42.213Z,22.97
2023-05-05T16:14:09.072Z,22.72
2023-05-05T16:16:36.026Z,22.38
2023-05-05T16:19:03.162Z,22.06
2023-05-05T16:21:30.127Z,21.99
2023-05-05T16:23:57.053Z,21.93
2023-05-05T16:26:23.899Z,21.95
2023-05-05T16:28:50.855Z,22.06
2023-05-05T16:31:17.931Z,22.14
2023-05-05T16:33:44.999Z,22.15
2023-05-05T16:36:12.617Z,22.09
2023-05-05T16:38:40.437Z,22.07
2023-05-05T16:41:08.074Z,21.99
2023-05-05T16:43:37.398Z,21.78
2023-05-05T16:46:04.525Z,21.64
2023-05-05T16:48:31.645Z,21.47
2023-05-05T16:50:58.824Z,21.31
2023-05-05T16:53:25.829Z,21.13
2023-05-05T16:55:53.591Z,21.00
2023-05-05T16:58:21.215Z,20.92
2023-05-05T17:00:49.477Z,20.80
2023-05-05T17:03:17.264Z,20.55
2023-05-05T17:05:46.636Z,20.31
2023-05-05T17:08:15.589Z,20.17
2023-05-05T17:10:42.790Z,20.11
2023-05-05T17:13:10.787Z,20.08
2023-05-05T17:15:37.743Z,20.20
2023-05-05T17:18:05.494Z,20.19
2023-05-05T17:20:32.429Z,20.16
2023-05-05T17:22:59.583Z,20.10
2023-05-05T17:25:26.425Z,20.04
2023-05-05T17:27:54.321Z,20.00
2023-05-05T17:30:21.235Z,19.91
2023-05-05T17:32:48.053Z,19.86
2023-05-05T17:35:15.285Z,19.76
2023-05-05T17:37:42.460Z,19.70
2023-05-05T17:40:09.452Z,19.65
2023-05-05T17:42:36.282Z,19.54
2023-05-05T17:45:03.507Z,19.48
2023-05-05T17:47:30.545Z,19.41
2023-05-05T17:49:57.554Z,19.41
2023-05-05T17:52:24.469Z,19.34
2023-05-05T17:54:51.699Z,19.27
2023-05-05T17:57:21.283Z,19.17
2023-05-05T17:59:50.111Z,19.12
2023-05-05T18:02:16.834Z,19.13
2023-05-05T18:04:43.963Z,19.01
2023-05-05T18:07:12.682Z,18.88
2023-05-05T18:09:39.651Z,18.82
2023-05-05T18:12:08.271Z,18.72
2023-05-05T18:14:35.884Z,18.49
2023-05-05T18:17:02.978Z,18.22
2023-05-05T18:19:29.877Z,18.05
2023-05-05T18:21:57.642Z,17.84
2023-05-05T18:24:24.679Z,17.61
2023-05-05T18:26:52.259Z,17.49
2023-05-05T18:29:19.533Z,17.38
2023-05-05T18:31:49.731Z,17.37
2023-05-05T18:34:17.230Z,17.30
2023-05-05T18:36:44.350Z,17.27
2023-05-05T18:39:11.703Z,17.22
2023-05-05T18:41:38.601Z,17.11
2023-05-05T18:44:05.722Z,17.03
2023-05-05T18:46:32.713Z,16.98
2023-05-05T18:49:00.823Z,16.95
2023-05-05T18:51:28.813Z,16.95
2023-05-05T18:53:55.692Z,16.95
2023-05-05T18:56:22.878Z,16.89
2023-05-05T18:58:49.844Z,16.80
2023-05-05T19:01:17.386Z,16.70
2023-05-05T19:03:50.763Z,16.61
2023-05-05T19:06:17.712Z,16.48
2023-05-05T19:08:45.912Z,16.40
2023-05-05T19:11:15.110Z,16.33
2023-05-05T19:13:42.550Z,16.29
2023-05-05T19:16:11.524Z,16.29
2023-05-05T19:18:39.238Z,16.23
2023-05-05T19:21:06.138Z,16.13
2023-05-05T19:23:33.661Z,16.02
2023-05-05T19:26:00.814Z,15.95
2023-05-05T19:28:27.619Z,15.92
2023-05-05T19:30:54.572Z,15.85
2023-05-05T19:33:21.539Z,15.84
2023-05-05T19:35:48.365Z,15.87
2023-05-05T19:38:16.032Z,15.83
2023-05-05T19:40:43.384Z,15.76
2023-05-05T19:43:10.489Z,15.72
2023-05-05T19:45:37.692Z,15.72
2023-05-05T19:48:04.978Z,15.72
2023-05-05T19:50:32.042Z,15.71
2023-05-05T19:52:58.975Z,15.72
2023-05-05T19:55:25.959Z,15.63
2023-05-05T19:57:52.778Z,15.41
2023-05-05T20:00:20.013Z,15.34
2023-05-05T20:02:48.743Z,15.27
2023-05-05T20:05:17.917Z,15.25
2023-05-05T20:07:47.017Z,15.26
2023-05-05T20:10:13.857Z,15.26
2023-05-05T20:12:48.184Z,15.25
2023-05-05T20:15:19.296Z,15.24
2023-05-05T20:17:47.520Z,15.26
2023-05-05T20:20:20.541Z,15.23
2023-05-05T20:22:47.641Z,15.22
2023-05-05T20:25:18.110Z,15.14
2023-05-05T20:27:45.868Z,14.97
2023-05-05T20:30:13.475Z,14.91
2023-05-05T20:32:40.893Z,14.80
2023-05-05T20:35:08.976Z,14.74
2023-05-05T20:37:36.014Z,14.66
2023-05-05T20:40:02.908Z,14.64
2023-05-05T20:42:29.929Z,14.60
2023-05-05T20:44:57.042Z,14.55
2023-05-05T20:47:24.511Z,14.55
2023-05-05T20:49:52.681Z,14.52
2023-05-05T20:52:19.763Z,14.53
2023-05-05T20:54:46.787Z,14.51
2023-05-05T20:57:13.717Z,14.50
2023-05-05T20:59:40.633Z,14.48
2023-05-05T21:02:07.850Z,14.54
2023-05-05T21:04:34.804Z,14.60
2023-05-05T21:07:01.809Z,14.63
2023-05-05T21:09:28.895Z,14.58
2023-05-05T21:11:55.843Z,14.46
2023-05-05T21:14:23.829Z,14.35
2023-05-05T21:16:50.951Z,14.28
2023-05-05T21:19:18.028Z,14.24
2023-05-05T21:21:44.970Z,14.24
2023-05-05T21:24:13.272Z,14.22
2023-05-05T21:26:46.983Z,14.20
2023-05-05T21:29:13.841Z,14.17
2023-05-05T21:31:40.759Z,14.13
2023-05-05T21:34:07.628Z,14.09
2023-05-05T21:36:34.640Z,14.12
2023-05-05T21:39:01.856Z,14.10
2023-05-05T21:41:28.855Z,14.02
2023-05-05T21:43:55.887Z,13.98
2023-05-05T21:46:23.115Z,14.00
2023-05-05T21:48:50.167Z,14.08
2023-05-05T21:51:17.551Z,14.03
2023-05-05T21:53:44.508Z,14.06
2023-05-05T21:56:11.495Z,14.07
2023-05-05T21:58:38.411Z,14.06
2023-05-05T22:01:05.551Z,14.06
2023-05-05T22:03:34.368Z,14.02
2023-05-05T22:06:01.491Z,13.91
2023-05-05T22:08:28.418Z,13.83
2023-05-05T22:10:55.281Z,13.68
2023-05-05T22:13:22.354Z,13.64
2023-05-05T22:15:49.354Z,13.66
2023-05-05T22:18:16.317Z,13.74
2023-05-05T22:20:44.169Z,13.87
2023-05-05T22:23:10.915Z,13.94
2023-05-05T22:25:37.696Z,14.00
2023-05-05T22:28:05.003Z,13.97
2023-05-05T22:30:32.035Z,13.94
2023-05-05T22:32:58.931Z,14.01
2023-05-05T22:35:25.786Z,14.11
2023-05-05T22:37:52.746Z,14.19
2023-05-05T22:40:19.529Z,14.17
2023-05-05T22:42:46.304Z,14.15
2023-05-05T22:45:13.909Z,14.02
2023-05-05T22:47:41.162Z,13.87
2023-05-05T22:50:09.104Z,13.74
2023-05-05T22:52:36.527Z,13.75
2023-05-05T22:55:03.638Z,13.81
2023-05-05T22:57:30.592Z,13.84
2023-05-05T22:59:57.651Z,13.83
2023-05-05T23:02:26.840Z,13.84
2023-05-05T23:04:53.876Z,13.86
2023-05-05T23:07:20.977Z,13.87
2023-05-05T23:09:48.117Z,13.89
2023-05-05T23:12:15.006Z,13.94
2023-05-05T23:14:42.025Z,13.97
2023-05-05T23:17:08.835Z,14.02
2023-05-05T23:19:36.380Z,14.06
2023-05-05T23:22:03.784Z,14.10
2023-05-05T23:24:31.171Z,14.12
2023-05-05T23:27:04.336Z,13.97
2023-05-05T23:29:31.460Z,13.81
2023-05-05T23:31:58.451Z,13.62
2023-05-05T23:34:26.084Z,13.47
2023-05-05T23:36:53.061Z,13.36
2023-05-05T23:39:19.941Z,13.26
2023-05-05T23:41:46.798Z,13.19
2023-05-05T23:44:13.678Z,13.00
2023-05-05T23:46:40.761Z,12.81
2023-05-05T23:49:07.592Z,12.76
2023-05-05T23:51:34.455Z,12.76
2023-05-05T23:54:01.513Z,12.83
2023-05-05T23:56:28.299Z,12.90
2023-05-05T23:58:55.196Z,12.97
